地図

経路データ

SID SEASON NUMBER BASIN SUBBASIN NAME ISO_TIME NATURE LAT LON WMO_WIND WMO_PRES WMO_AGENCY TRACK_TYPE DIST2LAND LANDFALL IFLAG USA_AGENCY USA_ATCF_ID USA_LAT USA_LON USA_RECORD USA_STATUS USA_WIND USA_PRES USA_SSHS USA_R34_NE USA_R34_SE USA_R34_SW USA_R34_NW USA_R50_NE USA_R50_SE USA_R50_SW USA_R50_NW USA_R64_NE USA_R64_SE USA_R64_SW USA_R64_NW USA_POCI USA_ROCI USA_RMW USA_EYE TOKYO_LAT TOKYO_LON TOKYO_GRADE TOKYO_WIND TOKYO_PRES TOKYO_R50_DIR TOKYO_R50_LONG TOKYO_R50_SHORT TOKYO_R30_DIR TOKYO_R30_LONG TOKYO_R30_SHORT TOKYO_LAND CMA_LAT CMA_LON CMA_CAT CMA_WIND CMA_PRES HKO_LAT HKO_LON HKO_CAT HKO_WIND HKO_PRES NEWDELHI_LAT NEWDELHI_LON NEWDELHI_GRADE NEWDELHI_WIND NEWDELHI_PRES NEWDELHI_CI NEWDELHI_DP NEWDELHI_POCI REUNION_LAT REUNION_LON REUNION_TYPE REUNION_WIND REUNION_PRES REUNION_TNUM REUNION_CI REUNION_RMW REUNION_R34_NE REUNION_R34_SE REUNION_R34_SW REUNION_R34_NW REUNION_R50_NE REUNION_R50_SE REUNION_R50_SW REUNION_R50_NW REUNION_R64_NE REUNION_R64_SE REUNION_R64_SW REUNION_R64_NW BOM_LAT BOM_LON BOM_TYPE BOM_WIND BOM_PRES BOM_TNUM BOM_CI BOM_RMW BOM_R34_NE BOM_R34_SE BOM_R34_SW BOM_R34_NW BOM_R50_NE BOM_R50_SE BOM_R50_SW BOM_R50_NW BOM_R64_NE BOM_R64_SE BOM_R64_SW BOM_R64_NW BOM_ROCI BOM_POCI BOM_EYE BOM_POS_METHOD BOM_PRES_METHOD NADI_LAT NADI_LON NADI_CAT NADI_WIND NADI_PRES WELLINGTON_LAT WELLINGTON_LON WELLINGTON_WIND WELLINGTON_PRES DS824_LAT DS824_LON DS824_STAGE DS824_WIND DS824_PRES TD9636_LAT TD9636_LON TD9636_STAGE TD9636_WIND TD9636_PRES TD9635_LAT TD9635_LON TD9635_WIND TD9635_PRES TD9635_ROCI NEUMANN_LAT NEUMANN_LON NEUMANN_CLASS NEUMANN_WIND NEUMANN_PRES MLC_LAT MLC_LON MLC_CLASS MLC_WIND MLC_PRES USA_GUST BOM_GUST BOM_GUST_PER REUNION_GUST REUNION_GUST_PER USA_SEAHGT USA_SEARAD_NE USA_SEARAD_SE USA_SEARAD_SW USA_SEARAD_NW STORM_SPEED STORM_DIR
2021335S09102 2022 55 SI WA TERATAI 2021-12-01 06:00:00 TS -9.15000 102.250 PROVISIONAL 410 410 O_____________ tcvightals SI022021 -9.20000 102.300 35 1004 0 10 10 45 30 1008 70 45 9 200
2021335S09102 2022 55 SI WA TERATAI 2021-12-01 09:00:00 TS -9.54840 102.102 PROVISIONAL 456 456 P_____________ SI022021 -9.65928 102.160 35 1004 0 20 30 37 1008 70 45 8 202
2021335S09102 2022 55 SI WA TERATAI 2021-12-01 12:00:00 TS -9.86846 101.951 PROVISIONAL 494 494 I_____________ tcvightals SI022021 -10.0369 102.003 35 1004 0 30 50 45 1008 70 45 6 211
2021335S09102 2022 55 SI WA TERATAI 2021-12-01 15:00:00 TS -10.0493 101.791 PROVISIONAL 518 518 P_____________ SI022021 -10.2612 101.817 35 1004 0 30 52 45 1008 80 35 4 236
2021335S09102 2022 55 SI WA TERATAI 2021-12-01 18:00:00 TS -10.1000 101.600 PROVISIONAL 541 541 O_____________ tcvightals SI022021 -10.3000 101.600 35 1004 0 30 55 40 45 1008 90 25 4 271
2021335S09102 2022 55 SI WA TERATAI 2021-12-01 21:00:00 TS -10.0424 101.346 PROVISIONAL 559 559 P_____________ SI022021 -10.1048 101.342 32 1004 -1 1009 90 25 5 288
2021335S09102 2022 55 SI WA TERATAI 2021-12-02 00:00:00 TS -9.94444 101.100 PROVISIONAL 569 569 O_____________ tcvitals SI022021 -9.90000 101.100 29 1005 -1 1010 90 25 4 283
2021335S09102 2022 55 SI WA TERATAI 2021-12-02 03:00:00 TS -9.93985 100.905 PROVISIONAL 587 587 P_____________ SI022021 -10.0150 100.943 27 1005 -1 1010 90 25 4 282
2021335S09102 2022 55 SI WA TERATAI 2021-12-02 06:00:00 TS -9.86261 100.712 PROVISIONAL 605 598 O_____________ tcvightals SI022021 -10.1000 100.800 25 1005 -1 1010 90 25 5 310
2021335S09102 2022 55 SI WA TERATAI 2021-12-02 09:00:00 TS -9.61135 100.509 PROVISIONAL 605 599 P_____________ SI022021 -9.84499 100.615 25 1005 -1 1010 90 30 7 321
2021335S09102 2022 55 SI WA TERATAI 2021-12-02 12:00:00 TS -9.35556 100.301 PROVISIONAL 612 603 O_____________ tcvightals SI022021 -9.50000 100.400 25 1005 -1 1010 90 35 6 311
2021335S09102 2022 55 SI WA TERATAI 2021-12-02 15:00:00 TS -9.21029 100.042 PROVISIONAL 613 610 P_____________ SI022021 -9.26994 100.180 25 1005 -1 1009 85 35 6 296
2021335S09102 2022 55 SI WA TERATAI 2021-12-02 18:00:00 TS -9.10557 99.7713 PROVISIONAL 617 617 O_____________ tcvightals SI022021 -9.10000 99.9000 25 1006 -1 1009 80 35 6 291
2021335S09102 2022 55 SI WA TERATAI 2021-12-02 21:00:00 TS -8.98032 99.4485 PROVISIONAL 635 626 P_____________ SI022021 -8.96257 99.5075 25 1006 -1 1009 80 40 7 287
2021335S09102 2022 55 SI WA TERATAI 2021-12-03 00:00:00 TS -8.90000 99.1000 PROVISIONAL 647 647 O_____________ tcvitals SI022021 -8.90000 99.1000 25 1007 -1 1010 80 45 7 272
2021335S09102 2022 55 SI WA TERATAI 2021-12-03 03:00:00 TS -8.95747 98.7701 PROVISIONAL 677 677 P_____________ SI022021 -8.94997 98.7701 25 1006 -1 1010 80 45 6 260
2021335S09102 2022 55 SI WA TERATAI 2021-12-03 06:00:00 TS -9.00000 98.5000 PROVISIONAL 700 698 O_____________ tcvightals SI022021 -9.00000 98.5000 25 1006 -1 1010 80 45 5 281
2021335S09102 2022 55 SI WA TERATAI 2021-12-03 09:00:00 TS -8.86588 98.2905 PROVISIONAL 704 694 P_____________ SI022021 -8.92436 98.2661 25 1006 -1 1010 80 45 5 307
2021335S09102 2022 55 SI WA TERATAI 2021-12-03 12:00:00 TS -8.70000 98.1000 PROVISIONAL 702 702 O_____________ tcvightals SI022021 -8.80000 98.1000 25 1006 -1 1010 80 45 5 298
2021335S09102 2022 55 SI WA TERATAI 2021-12-03 15:00:00 TS -8.63408 97.8435 PROVISIONAL 716 716 P_____________ SI022021 -8.69054 97.9869 -5 1010 80 45 5 282
2021335S09102 2022 55 SI WA TERATAI 2021-12-03 18:00:00 TS -8.58930 97.5794 PROVISIONAL 732 732 O_____________ tcvightals SI022021 -8.57502 97.9520 -5 1010 80 45 5 283
2021335S09102 2022 55 SI WA TERATAI 2021-12-03 21:00:00 TS -8.52854 97.3668 PROVISIONAL 740 740 P_____________ SI022021 -8.44020 98.1124 -5 1010 80 45 5 286
2021335S09102 2022 55 SI WA TERATAI 2021-12-04 00:00:00 TS -8.46688 97.1348 PROVISIONAL 764 764 O_____________ tcvightals SI022021 -8.33437 98.0738 -5 1010 80 45 7 279
2021335S09102 2022 55 SI WA TERATAI 2021-12-04 03:00:00 TS -8.42250 96.7125 PROVISIONAL 785 779 P_____________ SI022021 -8.32985 97.3386 -5 1010 80 45 6 287
2021335S09102 2022 55 SI WA TERATAI 2021-12-04 06:00:00 TS -8.30000 96.6000 PROVISIONAL 779 762 O_____________ tcgp SH022022 -8.30000 96.6000 TD 25 1004 -1 1010 80 45 3 332
2021335S09102 2022 55 SI WA TERATAI 2021-12-04 09:00:00 TS -8.12238 96.5524 PROVISIONAL 758 733 P_____________ SH022022 -8.13460 96.4644 TD 25 1004 -1 1010 80 45 4 13
2021335S09102 2022 55 SI WA TERATAI 2021-12-04 12:00:00 TS -7.90000 96.7000 PROVISIONAL 733 686 O_____________ tcgp SH022022 -7.90000 96.7000 TD 25 1004 -1 1010 80 45 8 50
2021335S09102 2022 55 SI WA TERATAI 2021-12-04 15:00:00 TS -7.62019 97.1627 PROVISIONAL 683 636 P_____________ SH022022 -7.62019 97.1627 TD 25 1004 -1 1010 80 45 11 63
2021335S09102 2022 55 SI WA TERATAI 2021-12-04 18:00:00 TS -7.40000 97.7000 PROVISIONAL 636 602 O_____________ tcgp SH022022 -7.40000 97.7000 TD 25 1004 -1 1010 80 45 9 71
2021335S09102 2022 55 SI WA TERATAI 2021-12-04 21:00:00 TS -7.32489 98.0225 PROVISIONAL 602 584 P_____________ SH022022 -7.32489 98.0225 TD 25 1004 -1 1010 80 45 6 90
2021335S09102 2022 55 SI WA TERATAI 2021-12-05 00:00:00 TS -7.40000 98.3000 PROVISIONAL 584 574 O_____________ tcgp SH022022 -7.40000 98.3000 TD 25 1004 -1 1010 80 45 6 117
2021335S09102 2022 55 SI WA TERATAI 2021-12-05 03:00:00 TS -7.61985 98.5975 PROVISIONAL 574 567 P_____________ SH022022 -7.61985 98.5975 TD 22 1007 -1 1010 80 45 9 126
2021335S09102 2022 55 SI WA TERATAI 2021-12-05 06:00:00 NR -7.90000 99.0000 PROVISIONAL 569 544 O_____________ tcgp SH022022 -7.90000 99.0000 DB 20 1010 -3 1010 80 45 11 116
2021335S09102 2022 55 SI WA TERATAI 2021-12-05 09:00:00 NR -8.12264 99.6199 PROVISIONAL 544 513 P_____________ SH022022 -8.12264 99.6199 DB 20 1008 -3 1010 80 45 14 107
2021335S09102 2022 55 SI WA TERATAI 2021-12-05 12:00:00 NR -8.30000 100.300 PROVISIONAL 513 488 O_____________ tcgp SH022022 -8.30000 100.300 DB 20 1007 -3 1010 80 45 13 104
2021335S09102 2022 55 SI WA TERATAI 2021-12-05 15:00:00 NR -8.42232 100.858 PROVISIONAL 482 456 P_____________ SH022022 -8.47356 100.756 DB 20 1007 -3 1010 80 45 11 100
2021335S09102 2022 55 SI WA TERATAI 2021-12-05 18:00:00 NR -8.50000 101.400 PROVISIONAL 456 376 O_____________ tcgp SH022022 -8.50000 101.400 DB 20 1007 -3 1010 80 45 14 89
2021335S09102 2022 55 SI WA TERATAI 2021-12-05 21:00:00 NR -8.39808 102.291 PROVISIONAL 366 301 P_____________ SH022022 -8.19081 102.704 DB -3 1010 80 45 16 85
2021335S09102 2022 55 SI WA TERATAI 2021-12-06 00:00:00 NR -8.36945 103.052 PROVISIONAL 292 251 O_____________ tcvightals SI022021 -7.90835 103.955 DB -3 1010 80 45 13 92
2021335S09102 2022 55 SI WA TERATAI 2021-12-06 03:00:00 NR -8.45029 103.651 PROVISIONAL 252 231 P_____________ SI022021 -8.00216 104.494 DB -3 1010 80 45 11 103
2021335S09102 2022 55 SI WA TERATAI 2021-12-06 06:00:00 TS -8.62105 104.142 PROVISIONAL 235 229 O_____________ tcvightals SI022021 -8.30525 104.709 DB -3 1010 80 45 10 114
2021335S09102 2022 55 SI WA TERATAI 2021-12-06 09:00:00 TS -8.86990 104.595 PROVISIONAL 244 236 P_____________ SI022021 -8.69477 104.901 DB -3 1010 80 45 11 117
2021335S09102 2022 55 SI WA TERATAI 2021-12-06 12:00:00 TS -9.10000 105.100 PROVISIONAL 238 229 O_____________ tcgp SH022022 -9.10000 105.100 TD 25 1008 -1 1010 80 45 11 117
2021335S09102 2022 55 SI WA TERATAI 2021-12-06 15:00:00 TS -9.34245 105.552 PROVISIONAL 230 230 P_____________ SH022022 -9.34226 105.514 TD 27 1006 -1 1009 115 52 9 122
2021335S09102 2022 55 SI WA TERATAI 2021-12-06 18:00:00 TS -9.60000 105.900 PROVISIONAL 252 250 O_____________ tcgp SH022022 -9.60000 105.900 TD 30 1004 -1 1008 150 60 8 130
2021335S09102 2022 55 SI WA TERATAI 2021-12-06 21:00:00 TS -9.83494 106.145 PROVISIONAL 270 270 P_____________ SH022022 -10.0649 106.030 TD 29 1004 -1 1008 155 60 7 149
2021335S09102 2022 55 SI WA TERATAI 2021-12-07 00:00:00 TS -10.1800 106.260 PROVISIONAL 313 313 O_____________ tcvitals SI022021 -10.5000 106.100 TD 29 1004 -1 1008 160 60 7 163
2021335S09102 2022 55 SI WA TERATAI 2021-12-07 03:00:00 TS -10.5361 106.367 PROVISIONAL 347 347 P_____________ SI022021 -10.6725 106.315 TD 29 1004 -1 1008 160 60 7 165
2021335S09102 2022 55 SI WA TERATAI 2021-12-07 06:00:00 TS -10.8684 106.443 PROVISIONAL 390 385 O_____________ tcgp SH022022 -10.8000 106.500 TD 30 1004 -1 1008 160 60 6 169
2021335S09102 2022 55 SI WA TERATAI 2021-12-07 09:00:00 TS -11.1568 106.487 PROVISIONAL 417 417 P_____________ SH022022 -11.0775 106.523 TD 30 1003 -1 1008 160 55 6 173
2021335S09102 2022 55 SI WA TERATAI 2021-12-07 12:00:00 TS -11.4302 106.518 PROVISIONAL 438 438 O_____________ tcgp SH022022 -11.4000 106.500 TD 30 1003 -1 1008 160 50 6 172
2021335S09102 2022 55 SI WA TERATAI 2021-12-07 15:00:00 TS -11.7135 106.567 PROVISIONAL 466 466 P_____________ SH022022 -11.7075 106.572 TD 32 1003 -1 1008 145 37 6 174
2021335S09102 2022 55 SI WA TERATAI 2021-12-07 18:00:00 TS -11.9905 106.569 PROVISIONAL 499 499 O_____________ tcgp SH022022 -12.0000 106.600 TS 35 1004 0 45 30 30 40 1008 130 25 5 189
2021335S09102 2022 55 SI WA TERATAI 2021-12-07 21:00:00 TS -12.2460 106.474 PROVISIONAL 523 523 P_____________ SH022022 -12.2500 106.495 TS 35 1004 0 42 30 30 47 1008 145 25 6 207
2021335S09102 2022 55 SI WA TERATAI 2021-12-08 00:00:00 TS -12.5000 106.300 PROVISIONAL 562 562 O_____________ tcvitals SI022021 -12.5000 106.300 TS 35 1005 0 40 30 30 55 1009 160 25 7 218
2021335S09102 2022 55 SI WA TERATAI 2021-12-08 03:00:00 TS -12.7823 106.052 PROVISIONAL 600 600 P_____________ SI022021 -12.8000 106.073 TS 35 1004 0 45 42 52 1009 155 25 8 224
2021335S09102 2022 55 SI WA TERATAI 2021-12-08 06:00:00 TS -13.0648 105.743 PROVISIONAL 643 643 O_____________ tcgp SH022022 -13.1000 105.800 TS 35 1004 0 50 55 50 1009 150 25 8 229
2021335S09102 2022 55 SI WA TERATAI 2021-12-08 09:00:00 TS -13.3241 105.407 PROVISIONAL 669 669 P_____________ SH022022 -13.3574 105.530 TS 35 1004 0 45 45 1009 150 30 9 234
2021335S09102 2022 55 SI WA TERATAI 2021-12-08 12:00:00 TS -13.5722 105.023 PROVISIONAL 711 711 O_____________ tcgp SH022022 -13.6000 105.200 TS 35 1005 0 40 40 1009 150 35 10 238
2021335S09102 2022 55 SI WA TERATAI 2021-12-08 15:00:00 TS -13.8292 104.573 PROVISIONAL 743 743 P_____________ SH022022 -13.8649 104.795 TS 35 1005 0 45 45 1009 120 32 10 241
2021335S09102 2022 55 SI WA TERATAI 2021-12-08 18:00:00 TS -14.0557 104.116 PROVISIONAL 791 791 O_____________ tcgp SH022022 -14.1000 104.300 TS 35 1005 0 50 60 50 1009 90 30 9 244
2021335S09102 2022 55 SI WA TERATAI 2021-12-08 21:00:00 TS -14.2274 103.715 PROVISIONAL 816 816 P_____________ SH022022 -14.2954 103.648 TS 35 1002 0 45 60 55 1009 117 30 8 248
2021335S09102 2022 55 SI WA TERATAI 2021-12-09 00:00:00 TS -14.3500 103.350 PROVISIONAL 839 839 O_____________ tcvitals SI022021 -14.4000 103.100 TS 35 999 0 40 60 60 1010 145 30 7 255
2021335S09102 2022 55 SI WA TERATAI 2021-12-09 03:00:00 TS -14.4211 102.993 PROVISIONAL 867 867 P_____________ SI022021 -14.3422 102.940 TS 32 1002 -1 1010 147 40 7 257
2021335S09102 2022 55 SI WA TERATAI 2021-12-09 06:00:00 TS -14.4961 102.684 PROVISIONAL 891 891 O_____________ tcgp SH022022 -14.3000 102.900 TD 30 1006 -1 1010 150 50 6 247
2021335S09102 2022 55 SI WA TERATAI 2021-12-09 09:00:00 TS -14.6397 102.465 PROVISIONAL 911 911 P_____________ SH022022 -14.4624 102.752 TD 30 1006 -1 1010 150 50 5 233
2021335S09102 2022 55 SI WA TERATAI 2021-12-09 12:00:00 TS -14.7916 102.283 PROVISIONAL 941 941 O_____________ tcgp SH022022 -14.7000 102.500 TD 30 1006 -1 1010 150 50 6 237
2021335S09102 2022 55 SI WA TERATAI 2021-12-09 15:00:00 TS -14.9415 101.979 PROVISIONAL 967 967 P_____________ SH022022 -14.9077 102.073 TD 29 1006 -1 1010 150 50 7 245
2021335S09102 2022 55 SI WA TERATAI 2021-12-09 18:00:00 NR -15.1000 101.600 PROVISIONAL 1008 1008 O_____________ tcvitals SI022021 -15.1000 101.600 TD 29 1006 -1 1010 150 50 8 245
2021335S09102 2022 55 SI WA TERATAI 2021-12-09 21:00:00 NR -15.2572 101.265 PROVISIONAL 1042 1042 P_____________ SI022021 -15.2572 101.265 TD 24 1006 -1 1010 150 50 7 246
2021335S09102 2022 55 SI WA TERATAI 2021-12-10 00:00:00 NR -15.4000 100.900 PROVISIONAL 1071 1071 O_____________ tcgp SH022022 -15.4000 100.900 DB 20 1007 -3 1010 150 50 9 252
2021335S09102 2022 55 SI WA TERATAI 2021-12-10 03:00:00 NR -15.5428 100.350 PROVISIONAL 1106 1106 P_____________ SH022022 -15.5428 100.350 DB 20 1007 -3 1010 150 50 11 254
2021335S09102 2022 55 SI WA TERATAI 2021-12-10 06:00:00 NR -15.7000 99.8000 PROVISIONAL 1157 1157 O_____________ tcgp SH022022 -15.7000 99.8000 DB 20 1007 -3 1010 150 50 9 247
2021335S09102 2022 55 SI WA TERATAI 2021-12-10 09:00:00 NR -15.8994 99.4798 PROVISIONAL 1193 1193 P_____________ SH022022 -15.8994 99.4798 DB 20 1007 -3 1010 150 50 8 239
2021335S09102 2022 55 SI WA TERATAI 2021-12-10 12:00:00 NR -16.1000 99.1000 PROVISIONAL 1235 1235 O_____________ tcgp SH022022 -16.1000 99.1000 DB 20 1007 -3 1010 150 50 11 252
2021335S09102 2022 55 SI WA TERATAI 2021-12-10 15:00:00 NR -16.2354 98.3947 PROVISIONAL 1287 1287 P_____________ SH022022 -16.2354 98.3947 DB 20 1007 -3 1010 150 50 15 258
2021335S09102 2022 55 SI WA TERATAI 2021-12-10 18:00:00 NR -16.4000 97.6000 PROVISIONAL 1356 1356 O_____________ tcgp SH022022 -16.4000 97.6000 DB 20 1007 -3 1010 150 50 15 252
2021335S09102 2022 55 SI WA TERATAI 2021-12-10 21:00:00 NR -16.6923 96.9202 PROVISIONAL 1429 1429 P_____________ SH022022 -16.6923 96.9202 DB 20 1007 -3 1010 150 50 14 244
2021335S09102 2022 55 SI WA TERATAI 2021-12-11 00:00:00 NR -17.0000 96.3000 PROVISIONAL 1496 1496 O_____________ tcgp SH022022 -17.0000 96.3000 DB 20 1007 -3 1010 150 50 13 245
2021335S09102 2022 55 SI WA TERATAI 2021-12-11 03:00:00 NR -17.2223 95.7198 PROVISIONAL 1556 1556 P_____________ SH022022 -17.2223 95.7198 DB 20 1008 -3 1010 150 50 11 249
2021335S09102 2022 55 SI WA TERATAI 2021-12-11 06:00:00 NR -17.4000 95.2000 PROVISIONAL 1608 1608 O_____________ tcgp SH022022 -17.4000 95.2000 DB 20 1010 -3 1010 150 50 10 250
2021335S09102 2022 55 SI WA TERATAI 2021-12-11 09:00:00 NR -17.5552 94.7352 PROVISIONAL 1661 1661 P_____________ SH022022 -17.5552 94.7352 DB 20 1008 -3 1010 150 50 9 251
2021335S09102 2022 55 SI WA TERATAI 2021-12-11 12:00:00 NR -17.7000 94.3000 PROVISIONAL 1699 O_____________ tcgp SH022022 -17.7000 94.3000 DB 20 1007 -3 1010 150 50 9 251

IBTrACS Databaseについて

本データベースは、米国NOAAが公開する1842年以降の世界の熱帯低気圧のベストトラックデータアーカイブInternational Best Track Archive for Climate Stewardship (IBTrACS)を、ウェブで閲覧しやすい形式に変換したものです。

最終更新日:2022-08-16